createdAt,value
2022-09-05T00:01:32.821Z,18.66
2022-09-05T00:04:24.494Z,18.59
2022-09-05T00:07:00.490Z,18.57
2022-09-05T00:09:56.675Z,18.53
2022-09-05T00:12:25.708Z,18.47
2022-09-05T00:15:17.146Z,18.44
2022-09-05T00:23:02.128Z,18.36
2022-09-05T00:24:28.181Z,18.32
2022-09-05T00:24:32.401Z,18.30
2022-09-05T00:27:00.313Z,18.23
2022-09-05T00:31:07.503Z,18.17
2022-09-05T00:32:39.739Z,18.18
2022-09-05T00:35:29.580Z,18.09
2022-09-05T00:37:59.689Z,18.08
2022-09-05T00:40:31.202Z,18.05
2022-09-05T00:43:03.296Z,17.99
2022-09-05T00:45:37.973Z,17.96
2022-09-05T00:48:18.288Z,17.95
2022-09-05T00:51:04.263Z,17.90
2022-09-05T00:53:43.079Z,17.86
2022-09-05T00:56:28.069Z,17.86
2022-09-05T00:59:06.113Z,17.84
2022-09-05T01:01:44.507Z,17.83
2022-09-05T01:04:25.957Z,17.81
2022-09-05T01:07:09.020Z,17.80
2022-09-05T01:10:03.990Z,17.77
2022-09-05T01:12:52.905Z,17.78
2022-09-05T01:15:32.143Z,17.77
2022-09-05T01:18:29.267Z,17.78
2022-09-05T01:21:13.325Z,17.79
2022-09-05T01:24:02.991Z,17.75
2022-09-05T01:27:33.829Z,17.67
2022-09-05T01:30:22.868Z,17.64
2022-09-05T01:33:10.893Z,17.62
2022-09-05T01:36:12.138Z,17.57
2022-09-05T01:39:26.138Z,17.57
2022-09-05T01:41:46.069Z,17.55
2022-09-05T01:44:33.435Z,17.55
2022-09-05T01:47:29.305Z,17.52
2022-09-05T01:50:07.095Z,17.50
2022-09-05T01:52:57.771Z,17.42
2022-09-05T01:56:04.471Z,17.34
2022-09-05T01:58:48.865Z,17.37
2022-09-05T02:01:32.459Z,17.41
2022-09-05T02:04:21.826Z,17.37
2022-09-05T02:07:20.135Z,17.37
2022-09-05T02:10:12.912Z,17.35
2022-09-05T02:13:02.644Z,17.33
2022-09-05T02:15:45.187Z,17.29
2022-09-05T02:18:46.407Z,17.25
2022-09-05T02:21:25.077Z,17.23
2022-09-05T02:24:03.759Z,17.21
2022-09-05T02:26:37.850Z,17.18
2022-09-05T02:29:28.622Z,17.15
2022-09-05T02:32:03.006Z,17.17
2022-09-05T02:34:42.369Z,17.14
2022-09-05T02:37:24.218Z,17.12
2022-09-05T02:45:01.407Z,17.06
2022-09-05T02:45:19.716Z,17.07
2022-09-05T02:46:04.618Z,17.03
2022-09-05T02:48:49.701Z,17.05
2022-09-05T02:57:25.370Z,17.05
2022-09-05T02:57:38.993Z,17.00
2022-09-05T02:58:04.428Z,16.93
2022-09-05T03:00:19.954Z,16.87
2022-09-05T03:03:11.685Z,16.83
2022-09-05T03:05:47.316Z,16.81
2022-09-05T03:08:34.824Z,16.72
2022-09-05T03:11:45.417Z,16.67
2022-09-05T03:14:53.489Z,16.70
2022-09-05T03:17:48.653Z,16.68
2022-09-05T03:20:53.132Z,16.66
2022-09-05T03:23:43.404Z,16.65
2022-09-05T03:26:50.056Z,16.68
2022-09-05T03:29:38.750Z,16.65
2022-09-05T03:32:32.708Z,16.65
2022-09-05T03:35:39.401Z,16.62
2022-09-05T03:38:31.250Z,16.65
2022-09-05T03:41:16.421Z,16.73
2022-09-05T03:44:00.620Z,16.74
2022-09-05T03:46:43.607Z,16.77
2022-09-05T03:51:56.847Z,16.75
2022-09-05T03:57:13.434Z,16.74
2022-09-05T03:57:15.712Z,16.75
2022-09-05T03:58:59.074Z,16.75
2022-09-05T04:02:40.383Z,16.77
2022-09-05T04:08:09.951Z,16.80
2022-09-05T04:08:16.080Z,16.79
2022-09-05T04:10:27.313Z,16.79
2022-09-05T04:13:02.704Z,16.83
2022-09-05T04:15:39.492Z,16.84
2022-09-05T04:18:33.457Z,16.87
2022-09-05T04:21:09.368Z,16.89
2022-09-05T04:23:49.196Z,16.89
2022-09-05T04:26:36.534Z,16.92
2022-09-05T04:29:15.266Z,16.98
2022-09-05T04:32:06.541Z,16.96
2022-09-05T04:34:57.224Z,16.95
2022-09-05T04:37:48.465Z,16.93
2022-09-05T04:40:41.560Z,16.92
2022-09-05T04:43:14.498Z,16.92
2022-09-05T04:45:46.494Z,16.94
2022-09-05T04:48:22.190Z,16.98
2022-09-05T04:51:12.953Z,17.03
2022-09-05T04:54:19.222Z,17.01
2022-09-05T04:56:51.957Z,16.95
2022-09-05T05:01:03.073Z,16.98
2022-09-05T05:06:08.546Z,16.96
2022-09-05T05:06:16.898Z,16.97
2022-09-05T05:08:16.027Z,16.96
2022-09-05T05:15:38.174Z,16.96
2022-09-05T05:18:11.319Z,17.12
2022-09-05T05:18:12.957Z,17.03
2022-09-05T05:19:48.827Z,17.15
2022-09-05T05:22:39.461Z,17.19
2022-09-05T05:25:13.054Z,17.26
2022-09-05T05:27:47.470Z,17.29
2022-09-05T05:30:27.860Z,17.37
2022-09-05T05:32:56.791Z,17.45
2022-09-05T05:35:29.178Z,17.45
2022-09-05T05:38:08.165Z,17.48
2022-09-05T05:40:51.096Z,17.57
2022-09-05T05:43:23.784Z,17.65
2022-09-05T05:45:58.229Z,17.65
2022-09-05T05:48:33.332Z,17.60
2022-09-05T05:51:15.075Z,17.47
2022-09-05T05:53:52.266Z,17.53
2022-09-05T05:56:56.006Z,17.63
2022-09-05T05:59:41.052Z,17.71
2022-09-05T06:03:30.288Z,17.79
2022-09-05T06:06:22.794Z,17.86
2022-09-05T06:13:14.619Z,17.96
2022-09-05T06:15:04.762Z,18.02
2022-09-05T06:16:11.007Z,18.02
2022-09-05T06:19:21.924Z,18.06
2022-09-05T06:22:21.358Z,18.09
2022-09-05T06:25:25.649Z,18.14
2022-09-05T06:28:19.332Z,18.27
2022-09-05T06:30:57.191Z,18.33
2022-09-05T06:34:04.841Z,18.39
2022-09-05T06:36:48.956Z,18.45
2022-09-05T06:39:27.035Z,18.51
2022-09-05T06:42:33.323Z,18.59
2022-09-05T06:45:28.897Z,18.68
2022-09-05T06:48:05.975Z,18.76
2022-09-05T06:51:08.362Z,18.82
2022-09-05T06:54:21.800Z,18.92
2022-09-05T06:57:11.495Z,19.00
2022-09-05T07:00:15.571Z,19.04
2022-09-05T07:03:10.015Z,19.11
2022-09-05T07:05:50.160Z,19.19
2022-09-05T07:08:35.167Z,19.30
2022-09-05T07:11:16.938Z,19.40
2022-09-05T07:13:58.399Z,19.47
2022-09-05T07:16:39.544Z,19.53
2022-09-05T07:19:29.894Z,19.62
2022-09-05T07:22:46.276Z,19.71
2022-09-05T07:25:18.367Z,19.81
2022-09-05T07:28:26.235Z,19.83
2022-09-05T07:30:47.440Z,19.90
2022-09-05T07:33:20.353Z,19.98
2022-09-05T07:35:51.337Z,20.06
2022-09-05T07:38:30.737Z,20.10
2022-09-05T07:41:23.468Z,20.16
2022-09-05T07:43:58.830Z,20.24
2022-09-05T07:46:30.042Z,20.29
2022-09-05T07:49:02.691Z,20.36
2022-09-05T07:56:47.272Z,20.44
2022-09-05T07:57:10.066Z,20.52
2022-09-05T07:57:31.317Z,20.68
2022-09-05T08:00:08.428Z,20.82
2022-09-05T08:02:55.230Z,20.89
2022-09-05T08:05:35.003Z,20.97
2022-09-05T08:08:12.411Z,21.11
2022-09-05T08:11:24.612Z,21.19
2022-09-05T08:13:51.808Z,21.30
2022-09-05T08:16:23.743Z,21.39
2022-09-05T08:18:56.987Z,21.47
2022-09-05T08:21:31.430Z,21.59
2022-09-05T08:24:13.768Z,21.73
2022-09-05T08:26:48.612Z,21.88
2022-09-05T08:29:30.925Z,22.02
2022-09-05T08:32:08.628Z,22.15
2022-09-05T08:34:44.810Z,22.27
2022-09-05T08:37:21.691Z,22.45
2022-09-05T08:40:10.309Z,22.60
2022-09-05T08:43:42.918Z,22.74
2022-09-05T08:46:39.916Z,22.85
2022-09-05T08:48:41.539Z,22.96
2022-09-05T08:51:25.806Z,23.06
2022-09-05T08:54:17.441Z,23.13
2022-09-05T08:56:55.098Z,23.21
2022-09-05T08:59:36.358Z,23.29
2022-09-05T09:02:46.486Z,23.38
2022-09-05T09:05:19.226Z,23.50
2022-09-05T09:07:56.943Z,23.56
2022-09-05T09:10:40.401Z,23.64
2022-09-05T09:13:31.863Z,23.72
2022-09-05T09:16:06.451Z,23.78
2022-09-05T09:18:45.833Z,23.82
2022-09-05T09:21:26.146Z,23.96
2022-09-05T09:24:05.695Z,24.14
2022-09-05T09:26:38.363Z,24.20
2022-09-05T09:29:13.197Z,24.27
2022-09-05T09:32:05.891Z,24.48
2022-09-05T09:34:57.533Z,24.72
2022-09-05T09:37:59.362Z,24.87
2022-09-05T09:40:53.573Z,25.08
2022-09-05T09:43:38.317Z,25.24
2022-09-05T09:46:18.839Z,25.32
2022-09-05T09:49:03.802Z,25.26
2022-09-05T09:52:04.313Z,25.26
2022-09-05T09:54:54.948Z,25.27
2022-09-05T09:58:01.940Z,25.25
2022-09-05T10:00:45.750Z,25.32
2022-09-05T10:10:32.986Z,25.40
2022-09-05T10:10:54.453Z,25.74
2022-09-05T10:11:09.182Z,25.97
2022-09-05T10:13:23.107Z,26.16
2022-09-05T10:16:35.581Z,26.28
2022-09-05T10:22:38.660Z,26.60
2022-09-05T10:25:20.221Z,26.77
2022-09-05T10:28:07.199Z,26.92
2022-09-05T10:32:59.448Z,26.99
2022-09-05T10:35:07.490Z,27.01
2022-09-05T10:36:33.238Z,27.04
2022-09-05T10:39:17.426Z,27.08
2022-09-05T10:41:50.835Z,27.12
2022-09-05T10:44:29.398Z,27.11
2022-09-05T10:47:10.495Z,27.17
2022-09-05T10:49:43.652Z,27.23
2022-09-05T10:52:18.841Z,27.38
2022-09-05T10:55:14.561Z,27.46
2022-09-05T10:57:58.131Z,27.55
2022-09-05T11:02:24.226Z,27.70
2022-09-05T11:03:46.646Z,27.85
2022-09-05T11:06:24.809Z,28.02
2022-09-05T11:09:05.449Z,28.07
2022-09-05T11:11:46.064Z,28.16
2022-09-05T11:14:36.545Z,28.24
2022-09-05T11:17:15.112Z,28.30
2022-09-05T11:19:45.971Z,28.38
2022-09-05T11:22:23.248Z,28.51
2022-09-05T11:24:56.822Z,28.61
2022-09-05T11:27:32.916Z,28.74
2022-09-05T11:30:05.724Z,28.88
2022-09-05T11:37:52.243Z,28.98
2022-09-05T11:39:51.198Z,29.05
2022-09-05T11:40:07.050Z,29.14
2022-09-05T11:42:05.565Z,29.31
2022-09-05T11:44:39.996Z,29.46
2022-09-05T11:47:44.784Z,29.29
2022-09-05T11:50:43.326Z,29.25
2022-09-05T11:53:38.922Z,29.23
2022-09-05T11:56:42.648Z,29.27
2022-09-05T11:59:44.895Z,29.24
2022-09-05T12:02:41.190Z,29.16
2022-09-05T12:05:50.384Z,29.09
2022-09-05T12:08:35.181Z,28.99
2022-09-05T12:11:21.386Z,29.02
2022-09-05T12:13:57.494Z,29.20
2022-09-05T12:16:50.179Z,29.47
2022-09-05T12:22:29.354Z,30.00
2022-09-05T12:27:41.872Z,30.28
2022-09-05T12:29:36.315Z,30.49
2022-09-05T12:33:24.309Z,30.64
2022-09-05T12:36:04.241Z,30.90
2022-09-05T12:41:37.580Z,31.25
2022-09-05T12:41:41.301Z,29.71
2022-09-05T12:42:10.625Z,31.10
2022-09-05T12:44:36.271Z,31.36
2022-09-05T12:46:26.270Z,31.33
2022-09-05T12:49:01.472Z,31.37
2022-09-05T12:51:45.800Z,31.48
2022-09-05T12:54:33.514Z,31.58
2022-09-05T13:00:29.027Z,31.77
2022-09-05T13:03:12.131Z,31.95
2022-09-05T13:03:28.510Z,32.08
2022-09-05T13:06:00.469Z,32.22
2022-09-05T13:08:40.538Z,32.17
2022-09-05T13:14:46.228Z,31.94
2022-09-05T13:14:54.757Z,31.69
2022-09-05T13:16:57.944Z,31.64
2022-09-05T13:19:33.611Z,31.82
2022-09-05T13:22:04.629Z,32.02
2022-09-05T13:24:38.728Z,32.10
2022-09-05T13:27:14.796Z,32.22
2022-09-05T13:30:13.231Z,32.33
2022-09-05T13:38:09.895Z,32.34
2022-09-05T13:38:14.908Z,32.38
2022-09-05T13:38:48.532Z,32.54
2022-09-05T13:41:28.393Z,32.54
2022-09-05T13:44:00.191Z,32.52
2022-09-05T13:46:58.487Z,32.65
2022-09-05T13:49:36.965Z,32.84
2022-09-05T13:52:28.129Z,32.94
2022-09-05T13:55:10.035Z,33.06
2022-09-05T13:57:42.173Z,33.13
2022-09-05T14:01:02.460Z,33.19
2022-09-05T14:04:00.466Z,33.38
2022-09-05T14:10:10.663Z,33.43
2022-09-05T14:12:45.130Z,33.45
2022-09-05T14:15:33.365Z,33.54
2022-09-05T14:18:20.593Z,33.32
2022-09-05T14:21:13.508Z,32.96
2022-09-05T14:23:48.601Z,32.72
2022-09-05T14:26:22.871Z,32.78
2022-09-05T14:29:03.343Z,32.84
2022-09-05T14:37:34.846Z,33.00
2022-09-05T14:37:51.223Z,32.90
2022-09-05T14:38:14.223Z,32.98
2022-09-05T14:41:12.503Z,33.20
2022-09-05T14:44:06.022Z,33.34
2022-09-05T14:46:50.371Z,33.21
2022-09-05T14:49:52.113Z,33.42
2022-09-05T14:52:24.807Z,33.49
2022-09-05T15:02:38.411Z,32.87
2022-09-05T15:02:52.812Z,32.58
2022-09-05T15:06:36.840Z,31.84
2022-09-05T15:11:25.756Z,31.76
2022-09-05T15:12:28.124Z,31.82
2022-09-05T15:15:00.415Z,32.31
2022-09-05T15:17:31.173Z,32.75
2022-09-05T15:20:07.301Z,33.33
2022-09-05T15:22:41.630Z,33.70
2022-09-05T15:25:18.126Z,34.01
2022-09-05T15:27:47.182Z,34.27
2022-09-05T15:30:21.239Z,34.62
2022-09-05T15:32:51.222Z,34.92
2022-09-05T15:35:36.634Z,34.81
2022-09-05T15:38:55.914Z,34.39
2022-09-05T15:41:28.898Z,34.01
2022-09-05T15:44:03.444Z,33.51
2022-09-05T15:46:46.225Z,33.00
2022-09-05T15:49:31.767Z,32.66
2022-09-05T15:52:03.907Z,32.36
2022-09-05T15:54:37.741Z,32.10
2022-09-05T15:57:17.425Z,31.94
2022-09-05T15:59:49.397Z,32.35
2022-09-05T16:02:22.459Z,32.43
2022-09-05T16:10:27.143Z,32.60
2022-09-05T16:10:37.062Z,32.91
2022-09-05T16:11:10.048Z,32.88
2022-09-05T16:13:53.728Z,32.52
2022-09-05T16:22:14.014Z,32.23
2022-09-05T16:23:24.301Z,31.88
2022-09-05T16:23:29.524Z,31.66
2022-09-05T16:25:10.751Z,31.77
2022-09-05T16:27:47.541Z,32.06
2022-09-05T16:30:22.931Z,32.42
2022-09-05T16:32:57.366Z,32.78
2022-09-05T16:35:26.286Z,32.96
2022-09-05T16:38:02.849Z,33.13
2022-09-05T16:40:34.306Z,33.04
2022-09-05T16:43:10.165Z,33.08
2022-09-05T16:45:46.641Z,32.87
2022-09-05T16:48:30.163Z,32.57
2022-09-05T16:51:13.320Z,32.30
2022-09-05T16:53:58.568Z,31.92
2022-09-05T16:56:34.147Z,31.54
2022-09-05T16:59:07.578Z,31.27
2022-09-05T17:02:09.937Z,30.99
2022-09-05T17:05:04.757Z,30.77
2022-09-05T17:08:03.180Z,30.53
2022-09-05T17:10:42.107Z,30.36
2022-09-05T17:13:15.194Z,30.18
2022-09-05T17:15:52.541Z,30.00
2022-09-05T17:18:26.827Z,29.84
2022-09-05T17:20:59.921Z,29.64
2022-09-05T17:29:20.566Z,29.48
2022-09-05T17:29:30.531Z,29.25
2022-09-05T17:32:48.237Z,28.88
2022-09-05T17:35:24.087Z,28.75
2022-09-05T17:38:20.974Z,28.56
2022-09-05T17:41:17.883Z,28.35
2022-09-05T17:43:51.937Z,28.21
2022-09-05T17:46:24.174Z,28.06
2022-09-05T17:49:18.072Z,27.88
2022-09-05T17:52:19.050Z,27.69
2022-09-05T17:54:50.256Z,27.54
2022-09-05T17:57:41.174Z,27.41
2022-09-05T18:00:48.835Z,27.28
2022-09-05T18:04:17.164Z,27.13
2022-09-05T18:10:12.958Z,26.82
2022-09-05T18:13:31.064Z,26.68
2022-09-05T18:16:10.744Z,26.50
2022-09-05T18:21:48.241Z,26.23
2022-09-05T18:24:33.379Z,26.11
2022-09-05T18:27:47.479Z,26.00
2022-09-05T18:30:11.285Z,25.88
2022-09-05T18:32:47.238Z,25.78
2022-09-05T18:35:36.432Z,25.66
2022-09-05T18:38:49.927Z,25.53
2022-09-05T18:41:23.258Z,25.40
2022-09-05T18:44:13.406Z,25.32
2022-09-05T18:46:53.012Z,25.25
2022-09-05T18:50:24.102Z,25.16
2022-09-05T18:52:23.938Z,25.03
2022-09-05T18:56:09.684Z,24.91
2022-09-05T18:57:51.084Z,24.79
2022-09-05T19:00:35.342Z,24.71
2022-09-05T19:03:17.726Z,24.62
2022-09-05T19:05:50.556Z,24.54
2022-09-05T19:08:26.742Z,24.48
2022-09-05T19:11:00.035Z,24.42
2022-09-05T19:13:33.316Z,24.36
2022-09-05T19:19:06.999Z,24.21
2022-09-05T19:21:40.053Z,24.14
2022-09-05T19:24:13.010Z,24.13
2022-09-05T19:26:48.415Z,24.08
2022-09-05T19:36:53.680Z,24.06
2022-09-05T19:37:07.201Z,24.02
2022-09-05T19:37:10.375Z,23.99
2022-09-05T19:38:04.339Z,23.94
2022-09-05T19:47:27.753Z,23.91
2022-09-05T19:47:36.581Z,23.79
2022-09-05T19:47:43.463Z,23.82
2022-09-05T19:49:07.003Z,23.77
2022-09-05T19:51:35.492Z,23.73
2022-09-05T19:54:05.880Z,23.70
2022-09-05T19:56:40.652Z,23.65
2022-09-05T19:59:19.198Z,23.60
2022-09-05T20:01:50.472Z,23.56
2022-09-05T20:04:19.680Z,23.52
2022-09-05T20:06:49.209Z,23.45
2022-09-05T20:09:18.891Z,23.40
2022-09-05T20:11:49.434Z,23.35
2022-09-05T20:14:19.831Z,23.29
2022-09-05T20:16:50.027Z,23.23
2022-09-05T20:19:28.730Z,23.20
2022-09-05T20:22:40.409Z,23.18
2022-09-05T20:24:48.846Z,23.09
2022-09-05T20:27:17.536Z,23.06
2022-09-05T20:29:55.934Z,22.99
2022-09-05T20:32:39.543Z,22.97
2022-09-05T20:37:54.521Z,22.92
2022-09-05T20:43:21.188Z,22.87
2022-09-05T20:43:25.124Z,22.83
2022-09-05T20:43:58.055Z,22.80
2022-09-05T20:54:05.213Z,22.75
2022-09-05T20:54:06.802Z,22.71
2022-09-05T20:54:16.976Z,22.69
2022-09-05T20:55:40.368Z,22.67
2022-09-05T20:58:11.957Z,22.62
2022-09-05T21:00:46.370Z,22.59
2022-09-05T21:03:37.856Z,22.55
2022-09-05T21:06:26.560Z,22.47
2022-09-05T21:08:55.938Z,22.41
2022-09-05T21:11:31.742Z,22.37
2022-09-05T21:14:03.029Z,22.34
2022-09-05T21:16:34.242Z,22.34
2022-09-05T21:19:02.778Z,22.32
2022-09-05T21:21:34.592Z,22.28
2022-09-05T21:24:18.044Z,22.24
2022-09-05T21:26:49.443Z,22.20
2022-09-05T21:29:27.624Z,22.16
2022-09-05T21:32:10.555Z,22.08
2022-09-05T21:34:44.948Z,21.99
2022-09-05T21:37:17.141Z,21.92
2022-09-05T21:39:59.753Z,21.85
2022-09-05T21:44:49.168Z,21.81
2022-09-05T21:47:40.904Z,21.78
2022-09-05T21:48:10.416Z,21.75
2022-09-05T21:50:42.433Z,21.70
2022-09-05T21:56:50.289Z,21.61
2022-09-05T21:59:25.703Z,21.57
2022-09-05T21:59:26.028Z,21.54
2022-09-05T22:01:57.127Z,21.49
2022-09-05T22:04:25.351Z,21.42
2022-09-05T22:06:54.266Z,21.41
2022-09-05T22:09:24.776Z,21.36
2022-09-05T22:11:55.452Z,21.32
2022-09-05T22:14:25.831Z,21.30
2022-09-05T22:16:57.987Z,21.32
2022-09-05T22:19:37.547Z,21.31
2022-09-05T22:22:16.428Z,21.28
2022-09-05T22:24:53.508Z,21.24
2022-09-05T22:27:25.898Z,21.20
2022-09-05T22:29:57.230Z,21.19
2022-09-05T22:32:34.002Z,21.14
2022-09-05T22:35:26.837Z,21.12
2022-09-05T22:37:59.751Z,21.11
2022-09-05T22:40:31.293Z,21.10
2022-09-05T22:43:01.039Z,21.04
2022-09-05T22:45:30.737Z,21.01
2022-09-05T22:47:59.228Z,20.95
2022-09-05T22:50:27.571Z,20.88
2022-09-05T22:52:55.457Z,20.85
2022-09-05T22:55:23.523Z,20.83
2022-09-05T22:57:52.734Z,20.78
2022-09-05T23:00:21.283Z,20.73
2022-09-05T23:02:52.628Z,20.66
2022-09-05T23:05:20.913Z,20.59
2022-09-05T23:07:48.823Z,20.52
2022-09-05T23:10:17.732Z,20.49
2022-09-05T23:12:46.002Z,20.47
2022-09-05T23:15:15.434Z,20.44
2022-09-05T23:17:43.384Z,20.41
2022-09-05T23:20:12.172Z,20.37
2022-09-05T23:22:40.137Z,20.35
2022-09-05T23:25:09.637Z,20.35
2022-09-05T23:27:38.395Z,20.34
2022-09-05T23:30:09.877Z,20.34
2022-09-05T23:32:44.733Z,20.34
2022-09-05T23:35:12.879Z,20.33
2022-09-05T23:37:43.385Z,20.31
2022-09-05T23:40:13.339Z,20.29
2022-09-05T23:42:41.257Z,20.28
2022-09-05T23:45:10.471Z,20.25
2022-09-05T23:47:39.741Z,20.23
2022-09-05T23:50:08.475Z,20.18
2022-09-05T23:52:39.662Z,20.16
2022-09-05T23:55:09.634Z,20.12
2022-09-05T23:57:38.197Z,20.16
